Terminal Aerodrome Forecast
Issued by NWS

Home | Current Version | Previous Version | Graphics & Text | Print | Product List | Glossary On
Versions: 1 2 3 4 5 6 7 8 9 10 11 12 13
000
FTUS43 KBIS 250500
TAFDIK
TAF
KDIK 250529Z 2506/2606 26006KT P6SM BKN080 BKN200
     FM251100 VRB03KT P6SM BKN080 BKN200
     FM251800 14013KT P6SM SCT080=

USA.gov is the U.S. government's official web portal to all federal, state and local government web resources and services.